sensor_id;sensor_type;location;lat;lon;timestamp;P1;durP1;ratioP1;P2;durP2;ratioP2
17570;SDS011;8903;52.220;20.978;2023-06-19T00:00:52;19.67;;;17.77;;
17570;SDS011;8903;52.220;20.978;2023-06-19T00:03:19;18.97;;;16.97;;
17570;SDS011;8903;52.220;20.978;2023-06-19T00:05:46;21.20;;;18.40;;
17570;SDS011;8903;52.220;20.978;2023-06-19T00:08:15;19.97;;;17.87;;
17570;SDS011;8903;52.220;20.978;2023-06-19T00:10:42;17.73;;;15.90;;
17570;SDS011;8903;52.220;20.978;2023-06-19T00:13:09;19.07;;;17.27;;
17570;SDS011;8903;52.220;20.978;2023-06-19T00:15:37;20.33;;;18.33;;
17570;SDS011;8903;52.220;20.978;2023-06-19T00:18:04;19.67;;;17.70;;
17570;SDS011;8903;52.220;20.978;2023-06-19T00:20:32;20.87;;;17.70;;
17570;SDS011;8903;52.220;20.978;2023-06-19T00:23:00;20.13;;;18.23;;
17570;SDS011;8903;52.220;20.978;2023-06-19T00:25:29;20.83;;;18.97;;
17570;SDS011;8903;52.220;20.978;2023-06-19T00:27:56;21.90;;;19.70;;
17570;SDS011;8903;52.220;20.978;2023-06-19T00:30:23;25.70;;;22.90;;
17570;SDS011;8903;52.220;20.978;2023-06-19T00:32:51;26.57;;;23.77;;
17570;SDS011;8903;52.220;20.978;2023-06-19T00:35:18;25.33;;;22.77;;
17570;SDS011;8903;52.220;20.978;2023-06-19T00:37:47;25.13;;;22.70;;
17570;SDS011;8903;52.220;20.978;2023-06-19T00:40:19;25.13;;;22.57;;
17570;SDS011;8903;52.220;20.978;2023-06-19T00:42:53;24.60;;;22.13;;
17570;SDS011;8903;52.220;20.978;2023-06-19T00:45:20;22.63;;;20.40;;
17570;SDS011;8903;52.220;20.978;2023-06-19T00:47:49;21.60;;;19.43;;
17570;SDS011;8903;52.220;20.978;2023-06-19T00:50:16;22.13;;;19.97;;
17570;SDS011;8903;52.220;20.978;2023-06-19T00:52:43;22.57;;;20.40;;
17570;SDS011;8903;52.220;20.978;2023-06-19T00:55:11;22.17;;;20.00;;
17570;SDS011;8903;52.220;20.978;2023-06-19T00:57:39;20.50;;;18.27;;
17570;SDS011;8903;52.220;20.978;2023-06-19T01:00:09;21.23;;;19.17;;
17570;SDS011;8903;52.220;20.978;2023-06-19T01:02:38;22.07;;;19.73;;
17570;SDS011;8903;52.220;20.978;2023-06-19T01:05:05;22.93;;;20.57;;
17570;SDS011;8903;52.220;20.978;2023-06-19T01:07:33;21.33;;;19.37;;
17570;SDS011;8903;52.220;20.978;2023-06-19T01:10:06;19.20;;;17.40;;
17570;SDS011;8903;52.220;20.978;2023-06-19T01:12:36;19.80;;;17.70;;
17570;SDS011;8903;52.220;20.978;2023-06-19T01:15:04;19.93;;;17.83;;
17570;SDS011;8903;52.220;20.978;2023-06-19T01:17:33;18.80;;;17.00;;
17570;SDS011;8903;52.220;20.978;2023-06-19T01:20:02;20.50;;;18.07;;
17570;SDS011;8903;52.220;20.978;2023-06-19T01:22:38;18.20;;;16.60;;
17570;SDS011;8903;52.220;20.978;2023-06-19T01:25:08;19.47;;;17.63;;
17570;SDS011;8903;52.220;20.978;2023-06-19T01:27:36;20.10;;;18.20;;
17570;SDS011;8903;52.220;20.978;2023-06-19T01:30:05;19.07;;;17.17;;
17570;SDS011;8903;52.220;20.978;2023-06-19T01:32:34;18.50;;;16.40;;
17570;SDS011;8903;52.220;20.978;2023-06-19T01:35:04;18.30;;;16.43;;
17570;SDS011;8903;52.220;20.978;2023-06-19T01:37:33;21.87;;;18.63;;
17570;SDS011;8903;52.220;20.978;2023-06-19T01:40:02;20.57;;;18.47;;
17570;SDS011;8903;52.220;20.978;2023-06-19T01:42:32;19.67;;;17.67;;
17570;SDS011;8903;52.220;20.978;2023-06-19T01:44:59;19.13;;;17.23;;
17570;SDS011;8903;52.220;20.978;2023-06-19T01:47:28;18.23;;;16.60;;
17570;SDS011;8903;52.220;20.978;2023-06-19T01:49:55;18.43;;;16.63;;
17570;SDS011;8903;52.220;20.978;2023-06-19T01:52:23;19.17;;;17.37;;
17570;SDS011;8903;52.220;20.978;2023-06-19T01:54:50;19.63;;;17.73;;
17570;SDS011;8903;52.220;20.978;2023-06-19T01:57:19;17.73;;;16.03;;
17570;SDS011;8903;52.220;20.978;2023-06-19T01:59:46;23.97;;;17.63;;
17570;SDS011;8903;52.220;20.978;2023-06-19T02:02:14;18.90;;;17.20;;
17570;SDS011;8903;52.220;20.978;2023-06-19T02:04:41;18.97;;;17.00;;
17570;SDS011;8903;52.220;20.978;2023-06-19T02:07:08;19.30;;;17.50;;
17570;SDS011;8903;52.220;20.978;2023-06-19T02:09:37;20.30;;;18.27;;
17570;SDS011;8903;52.220;20.978;2023-06-19T02:12:05;18.83;;;16.83;;
17570;SDS011;8903;52.220;20.978;2023-06-19T02:14:34;18.33;;;16.43;;
17570;SDS011;8903;52.220;20.978;2023-06-19T02:17:01;21.30;;;18.57;;
17570;SDS011;8903;52.220;20.978;2023-06-19T02:19:28;19.93;;;17.90;;
17570;SDS011;8903;52.220;20.978;2023-06-19T02:21:56;20.77;;;18.27;;
17570;SDS011;8903;52.220;20.978;2023-06-19T02:24:25;19.57;;;17.77;;
17570;SDS011;8903;52.220;20.978;2023-06-19T02:26:52;21.53;;;18.30;;
17570;SDS011;8903;52.220;20.978;2023-06-19T02:29:19;19.80;;;17.80;;
17570;SDS011;8903;52.220;20.978;2023-06-19T02:31:48;17.53;;;15.87;;
17570;SDS011;8903;52.220;20.978;2023-06-19T02:34:15;21.57;;;16.33;;
17570;SDS011;8903;52.220;20.978;2023-06-19T02:36:42;18.10;;;16.33;;
17570;SDS011;8903;52.220;20.978;2023-06-19T02:39:12;18.83;;;16.97;;
17570;SDS011;8903;52.220;20.978;2023-06-19T02:41:40;17.70;;;15.80;;
17570;SDS011;8903;52.220;20.978;2023-06-19T02:44:10;19.10;;;15.93;;
17570;SDS011;8903;52.220;20.978;2023-06-19T02:46:38;19.23;;;17.10;;
17570;SDS011;8903;52.220;20.978;2023-06-19T02:49:09;19.37;;;17.57;;
17570;SDS011;8903;52.220;20.978;2023-06-19T02:51:37;19.60;;;17.67;;
17570;SDS011;8903;52.220;20.978;2023-06-19T02:54:04;17.37;;;15.77;;
17570;SDS011;8903;52.220;20.978;2023-06-19T02:56:31;16.43;;;14.80;;
17570;SDS011;8903;52.220;20.978;2023-06-19T02:58:58;17.30;;;15.70;;
17570;SDS011;8903;52.220;20.978;2023-06-19T03:01:28;16.20;;;14.60;;
17570;SDS011;8903;52.220;20.978;2023-06-19T03:03:55;16.53;;;15.07;;
17570;SDS011;8903;52.220;20.978;2023-06-19T03:06:24;18.33;;;16.43;;
17570;SDS011;8903;52.220;20.978;2023-06-19T03:08:51;19.60;;;17.60;;
17570;SDS011;8903;52.220;20.978;2023-06-19T03:11:19;18.30;;;16.30;;
17570;SDS011;8903;52.220;20.978;2023-06-19T03:13:47;19.00;;;17.10;;
17570;SDS011;8903;52.220;20.978;2023-06-19T03:16:14;19.83;;;17.57;;
17570;SDS011;8903;52.220;20.978;2023-06-19T03:18:42;17.43;;;15.83;;
17570;SDS011;8903;52.220;20.978;2023-06-19T03:21:10;18.00;;;16.33;;
17570;SDS011;8903;52.220;20.978;2023-06-19T03:23:38;16.47;;;14.67;;
17570;SDS011;8903;52.220;20.978;2023-06-19T03:26:07;18.20;;;16.30;;
17570;SDS011;8903;52.220;20.978;2023-06-19T03:28:37;19.20;;;17.50;;
17570;SDS011;8903;52.220;20.978;2023-06-19T03:31:07;17.13;;;15.40;;
17570;SDS011;8903;52.220;20.978;2023-06-19T03:33:34;16.90;;;15.20;;
17570;SDS011;8903;52.220;20.978;2023-06-19T03:36:02;21.60;;;19.47;;
17570;SDS011;8903;52.220;20.978;2023-06-19T03:38:51;20.40;;;18.40;;
17570;SDS011;8903;52.220;20.978;2023-06-19T03:41:21;21.37;;;19.17;;
17570;SDS011;8903;52.220;20.978;2023-06-19T03:43:48;22.20;;;19.80;;
17570;SDS011;8903;52.220;20.978;2023-06-19T03:46:16;21.37;;;19.20;;
17570;SDS011;8903;52.220;20.978;2023-06-19T03:48:45;21.57;;;19.40;;
17570;SDS011;8903;52.220;20.978;2023-06-19T03:51:12;20.17;;;18.10;;
17570;SDS011;8903;52.220;20.978;2023-06-19T03:53:40;21.30;;;19.10;;
17570;SDS011;8903;52.220;20.978;2023-06-19T03:56:08;21.43;;;19.23;;
17570;SDS011;8903;52.220;20.978;2023-06-19T03:58:36;20.80;;;18.60;;
17570;SDS011;8903;52.220;20.978;2023-06-19T04:01:03;20.20;;;18.23;;
17570;SDS011;8903;52.220;20.978;2023-06-19T04:03:31;19.00;;;16.97;;
17570;SDS011;8903;52.220;20.978;2023-06-19T04:05:58;19.87;;;17.87;;
17570;SDS011;8903;52.220;20.978;2023-06-19T04:08:26;20.03;;;18.07;;
17570;SDS011;8903;52.220;20.978;2023-06-19T04:10:53;19.13;;;17.17;;
17570;SDS011;8903;52.220;20.978;2023-06-19T04:13:22;18.27;;;16.50;;
17570;SDS011;8903;52.220;20.978;2023-06-19T04:15:51;17.17;;;15.67;;
17570;SDS011;8903;52.220;20.978;2023-06-19T04:18:18;20.93;;;16.27;;
17570;SDS011;8903;52.220;20.978;2023-06-19T04:20:45;24.37;;;16.57;;
17570;SDS011;8903;52.220;20.978;2023-06-19T04:23:13;18.77;;;16.70;;
17570;SDS011;8903;52.220;20.978;2023-06-19T04:25:40;17.77;;;15.87;;
17570;SDS011;8903;52.220;20.978;2023-06-19T04:28:07;18.50;;;16.70;;
17570;SDS011;8903;52.220;20.978;2023-06-19T04:30:36;17.17;;;15.60;;
17570;SDS011;8903;52.220;20.978;2023-06-19T04:33:04;16.50;;;15.00;;
17570;SDS011;8903;52.220;20.978;2023-06-19T04:35:33;16.77;;;15.03;;
17570;SDS011;8903;52.220;20.978;2023-06-19T04:38:05;16.40;;;14.90;;
17570;SDS011;8903;52.220;20.978;2023-06-19T04:40:32;17.70;;;16.00;;
17570;SDS011;8903;52.220;20.978;2023-06-19T04:43:00;17.63;;;16.03;;
17570;SDS011;8903;52.220;20.978;2023-06-19T04:45:27;16.63;;;15.20;;
17570;SDS011;8903;52.220;20.978;2023-06-19T04:47:56;16.90;;;15.20;;
17570;SDS011;8903;52.220;20.978;2023-06-19T04:50:28;16.40;;;14.80;;
17570;SDS011;8903;52.220;20.978;2023-06-19T04:52:55;16.37;;;14.70;;
17570;SDS011;8903;52.220;20.978;2023-06-19T04:55:22;17.40;;;15.60;;
17570;SDS011;8903;52.220;20.978;2023-06-19T04:57:51;16.40;;;15.00;;
17570;SDS011;8903;52.220;20.978;2023-06-19T05:00:18;19.17;;;17.17;;
17570;SDS011;8903;52.220;20.978;2023-06-19T05:02:48;16.10;;;14.60;;
17570;SDS011;8903;52.220;20.978;2023-06-19T05:05:17;17.50;;;15.90;;
17570;SDS011;8903;52.220;20.978;2023-06-19T05:07:44;17.10;;;15.27;;
17570;SDS011;8903;52.220;20.978;2023-06-19T05:10:12;15.83;;;14.43;;
17570;SDS011;8903;52.220;20.978;2023-06-19T05:12:39;16.00;;;14.50;;
17570;SDS011;8903;52.220;20.978;2023-06-19T05:15:07;14.60;;;13.20;;
17570;SDS011;8903;52.220;20.978;2023-06-19T05:17:35;18.00;;;16.30;;
17570;SDS011;8903;52.220;20.978;2023-06-19T05:20:04;15.90;;;14.30;;
17570;SDS011;8903;52.220;20.978;2023-06-19T05:22:34;17.30;;;15.77;;
17570;SDS011;8903;52.220;20.978;2023-06-19T05:25:02;18.80;;;17.07;;
17570;SDS011;8903;52.220;20.978;2023-06-19T05:27:29;18.93;;;15.63;;
17570;SDS011;8903;52.220;20.978;2023-06-19T05:29:56;16.37;;;14.53;;
17570;SDS011;8903;52.220;20.978;2023-06-19T05:32:24;17.03;;;15.30;;
17570;SDS011;8903;52.220;20.978;2023-06-19T05:34:51;16.37;;;14.77;;
17570;SDS011;8903;52.220;20.978;2023-06-19T05:37:18;16.10;;;14.70;;
17570;SDS011;8903;52.220;20.978;2023-06-19T05:39:48;15.03;;;13.63;;
17570;SDS011;8903;52.220;20.978;2023-06-19T05:42:15;15.63;;;14.23;;
17570;SDS011;8903;52.220;20.978;2023-06-19T05:44:43;13.00;;;11.70;;
17570;SDS011;8903;52.220;20.978;2023-06-19T05:47:10;13.03;;;11.83;;
17570;SDS011;8903;52.220;20.978;2023-06-19T05:49:37;12.63;;;11.53;;
17570;SDS011;8903;52.220;20.978;2023-06-19T05:52:06;14.17;;;12.87;;
17570;SDS011;8903;52.220;20.978;2023-06-19T05:54:34;12.83;;;10.00;;
17570;SDS011;8903;52.220;20.978;2023-06-19T05:57:03;13.93;;;10.53;;
17570;SDS011;8903;52.220;20.978;2023-06-19T05:59:30;13.00;;;11.80;;
17570;SDS011;8903;52.220;20.978;2023-06-19T06:01:57;14.03;;;12.70;;
17570;SDS011;8903;52.220;20.978;2023-06-19T06:04:25;11.63;;;10.63;;
17570;SDS011;8903;52.220;20.978;2023-06-19T06:06:52;13.83;;;12.37;;
17570;SDS011;8903;52.220;20.978;2023-06-19T06:09:19;14.40;;;13.00;;
17570;SDS011;8903;52.220;20.978;2023-06-19T06:11:46;13.60;;;11.93;;
17570;SDS011;8903;52.220;20.978;2023-06-19T06:14:15;17.10;;;12.83;;
17570;SDS011;8903;52.220;20.978;2023-06-19T06:16:42;13.40;;;12.20;;
17570;SDS011;8903;52.220;20.978;2023-06-19T06:19:10;12.80;;;10.67;;
17570;SDS011;8903;52.220;20.978;2023-06-19T06:21:37;12.63;;;11.40;;
17570;SDS011;8903;52.220;20.978;2023-06-19T06:24:05;9.43;;;8.53;;
17570;SDS011;8903;52.220;20.978;2023-06-19T06:26:32;10.00;;;9.20;;
17570;SDS011;8903;52.220;20.978;2023-06-19T06:29:00;8.73;;;7.93;;
17570;SDS011;8903;52.220;20.978;2023-06-19T06:31:29;10.80;;;8.53;;
17570;SDS011;8903;52.220;20.978;2023-06-19T06:33:56;10.00;;;9.10;;
17570;SDS011;8903;52.220;20.978;2023-06-19T06:36:23;8.33;;;7.53;;
17570;SDS011;8903;52.220;20.978;2023-06-19T06:38:51;11.23;;;10.13;;
17570;SDS011;8903;52.220;20.978;2023-06-19T06:41:18;9.40;;;8.60;;
17570;SDS011;8903;52.220;20.978;2023-06-19T06:43:45;9.40;;;8.70;;
17570;SDS011;8903;52.220;20.978;2023-06-19T06:46:12;7.63;;;7.00;;
17570;SDS011;8903;52.220;20.978;2023-06-19T06:48:42;7.23;;;6.63;;
17570;SDS011;8903;52.220;20.978;2023-06-19T06:51:09;7.37;;;6.70;;
17570;SDS011;8903;52.220;20.978;2023-06-19T06:53:36;8.03;;;7.33;;
17570;SDS011;8903;52.220;20.978;2023-06-19T06:56:04;7.60;;;6.90;;
17570;SDS011;8903;52.220;20.978;2023-06-19T06:58:31;8.20;;;7.60;;
17570;SDS011;8903;52.220;20.978;2023-06-19T07:00:58;8.40;;;7.60;;
17570;SDS011;8903;52.220;20.978;2023-06-19T07:03:26;9.90;;;8.10;;
17570;SDS011;8903;52.220;20.978;2023-06-19T07:05:56;8.90;;;8.10;;
17570;SDS011;8903;52.220;20.978;2023-06-19T07:08:23;9.23;;;8.33;;
17570;SDS011;8903;52.220;20.978;2023-06-19T07:10:51;8.40;;;7.60;;
17570;SDS011;8903;52.220;20.978;2023-06-19T07:13:18;9.77;;;9.00;;
17570;SDS011;8903;52.220;20.978;2023-06-19T07:15:45;10.90;;;8.90;;
17570;SDS011;8903;52.220;20.978;2023-06-19T07:18:13;10.17;;;8.60;;
17570;SDS011;8903;52.220;20.978;2023-06-19T07:20:40;10.27;;;9.23;;
17570;SDS011;8903;52.220;20.978;2023-06-19T07:23:08;10.37;;;9.47;;
17570;SDS011;8903;52.220;20.978;2023-06-19T07:25:36;9.37;;;8.43;;
17570;SDS011;8903;52.220;20.978;2023-06-19T07:28:03;14.00;;;10.00;;
17570;SDS011;8903;52.220;20.978;2023-06-19T07:30:31;13.20;;;8.87;;
17570;SDS011;8903;52.220;20.978;2023-06-19T07:32:58;9.97;;;9.07;;
17570;SDS011;8903;52.220;20.978;2023-06-19T07:35:25;10.67;;;9.43;;
17570;SDS011;8903;52.220;20.978;2023-06-19T07:37:52;9.50;;;8.70;;
17570;SDS011;8903;52.220;20.978;2023-06-19T07:40:21;10.80;;;9.30;;
17570;SDS011;8903;52.220;20.978;2023-06-19T07:42:48;10.73;;;9.77;;
17570;SDS011;8903;52.220;20.978;2023-06-19T07:45:16;10.70;;;9.80;;
17570;SDS011;8903;52.220;20.978;2023-06-19T07:47:43;9.50;;;8.70;;
17570;SDS011;8903;52.220;20.978;2023-06-19T07:50:10;10.57;;;9.67;;
17570;SDS011;8903;52.220;20.978;2023-06-19T07:52:37;10.90;;;9.90;;
17570;SDS011;8903;52.220;20.978;2023-06-19T07:55:05;11.97;;;9.20;;
17570;SDS011;8903;52.220;20.978;2023-06-19T07:57:33;10.40;;;9.40;;
17570;SDS011;8903;52.220;20.978;2023-06-19T08:00:01;10.77;;;9.77;;
17570;SDS011;8903;52.220;20.978;2023-06-19T08:02:36;10.47;;;9.50;;
17570;SDS011;8903;52.220;20.978;2023-06-19T08:05:04;10.70;;;9.63;;
17570;SDS011;8903;52.220;20.978;2023-06-19T08:07:31;9.63;;;8.83;;
17570;SDS011;8903;52.220;20.978;2023-06-19T08:09:59;10.63;;;9.63;;
17570;SDS011;8903;52.220;20.978;2023-06-19T08:12:26;10.60;;;9.70;;
17570;SDS011;8903;52.220;20.978;2023-06-19T08:14:55;10.20;;;9.33;;
17570;SDS011;8903;52.220;20.978;2023-06-19T08:17:22;10.10;;;9.10;;
17570;SDS011;8903;52.220;20.978;2023-06-19T08:19:49;10.97;;;9.97;;
17570;SDS011;8903;52.220;20.978;2023-06-19T08:22:17;10.77;;;9.93;;
17570;SDS011;8903;52.220;20.978;2023-06-19T08:24:44;11.37;;;9.10;;
17570;SDS011;8903;52.220;20.978;2023-06-19T08:27:11;9.53;;;8.73;;
17570;SDS011;8903;52.220;20.978;2023-06-19T08:29:38;9.70;;;8.80;;
17570;SDS011;8903;52.220;20.978;2023-06-19T08:32:07;9.77;;;8.87;;
17570;SDS011;8903;52.220;20.978;2023-06-19T08:34:35;11.77;;;10.77;;
17570;SDS011;8903;52.220;20.978;2023-06-19T08:37:03;10.93;;;9.93;;
17570;SDS011;8903;52.220;20.978;2023-06-19T08:39:30;9.67;;;8.87;;
17570;SDS011;8903;52.220;20.978;2023-06-19T08:41:58;9.67;;;8.77;;
17570;SDS011;8903;52.220;20.978;2023-06-19T08:44:25;13.23;;;9.27;;
17570;SDS011;8903;52.220;20.978;2023-06-19T08:46:52;9.57;;;8.67;;
17570;SDS011;8903;52.220;20.978;2023-06-19T08:49:21;11.30;;;9.10;;
17570;SDS011;8903;52.220;20.978;2023-06-19T08:51:48;9.70;;;8.90;;
17570;SDS011;8903;52.220;20.978;2023-06-19T08:54:15;8.67;;;6.60;;
17570;SDS011;8903;52.220;20.978;2023-06-19T08:56:43;9.53;;;8.73;;
17570;SDS011;8903;52.220;20.978;2023-06-19T08:59:11;7.23;;;6.53;;
17570;SDS011;8903;52.220;20.978;2023-06-19T09:01:38;10.93;;;7.80;;
17570;SDS011;8903;52.220;20.978;2023-06-19T09:04:09;9.87;;;7.63;;
17570;SDS011;8903;52.220;20.978;2023-06-19T09:06:46;7.60;;;6.43;;
17570;SDS011;8903;52.220;20.978;2023-06-19T09:09:13;8.43;;;6.73;;
17570;SDS011;8903;52.220;20.978;2023-06-19T09:11:41;7.17;;;6.53;;
17570;SDS011;8903;52.220;20.978;2023-06-19T09:14:09;8.60;;;7.80;;
17570;SDS011;8903;52.220;20.978;2023-06-19T09:16:37;7.90;;;7.20;;
17570;SDS011;8903;52.220;20.978;2023-06-19T09:19:05;8.60;;;7.90;;
17570;SDS011;8903;52.220;20.978;2023-06-19T09:21:35;12.90;;;11.60;;
17570;SDS011;8903;52.220;20.978;2023-06-19T09:24:04;8.27;;;7.57;;
17570;SDS011;8903;52.220;20.978;2023-06-19T09:26:32;8.03;;;7.23;;
17570;SDS011;8903;52.220;20.978;2023-06-19T09:29:09;7.90;;;7.30;;
17570;SDS011;8903;52.220;20.978;2023-06-19T09:31:36;8.83;;;7.97;;
17570;SDS011;8903;52.220;20.978;2023-06-19T09:34:04;8.37;;;7.63;;
17570;SDS011;8903;52.220;20.978;2023-06-19T09:36:32;7.70;;;7.10;;
17570;SDS011;8903;52.220;20.978;2023-06-19T09:39:00;6.60;;;6.10;;
17570;SDS011;8903;52.220;20.978;2023-06-19T09:41:30;7.63;;;6.93;;
17570;SDS011;8903;52.220;20.978;2023-06-19T09:43:57;6.80;;;6.30;;
17570;SDS011;8903;52.220;20.978;2023-06-19T09:46:26;7.10;;;6.40;;
17570;SDS011;8903;52.220;20.978;2023-06-19T09:48:53;6.30;;;5.70;;
17570;SDS011;8903;52.220;20.978;2023-06-19T09:51:30;7.07;;;6.37;;
17570;SDS011;8903;52.220;20.978;2023-06-19T09:53:58;6.07;;;5.47;;
17570;SDS011;8903;52.220;20.978;2023-06-19T09:56:29;12.10;;;6.30;;
17570;SDS011;8903;52.220;20.978;2023-06-19T09:58:57;7.00;;;6.30;;
17570;SDS011;8903;52.220;20.978;2023-06-19T10:01:25;6.37;;;5.77;;
17570;SDS011;8903;52.220;20.978;2023-06-19T10:04:01;5.97;;;5.57;;
17570;SDS011;8903;52.220;20.978;2023-06-19T10:06:29;5.73;;;5.33;;
17570;SDS011;8903;52.220;20.978;2023-06-19T10:09:05;6.30;;;5.30;;
17570;SDS011;8903;52.220;20.978;2023-06-19T10:11:45;5.33;;;4.93;;
17570;SDS011;8903;52.220;20.978;2023-06-19T10:14:13;6.37;;;5.87;;
17570;SDS011;8903;52.220;20.978;2023-06-19T10:16:43;7.57;;;6.90;;
17570;SDS011;8903;52.220;20.978;2023-06-19T10:19:11;7.00;;;6.33;;
17570;SDS011;8903;52.220;20.978;2023-06-19T10:21:43;6.80;;;6.20;;
17570;SDS011;8903;52.220;20.978;2023-06-19T10:24:13;7.13;;;6.43;;
17570;SDS011;8903;52.220;20.978;2023-06-19T10:26:40;6.10;;;5.40;;
17570;SDS011;8903;52.220;20.978;2023-06-19T10:29:15;6.13;;;5.57;;
17570;SDS011;8903;52.220;20.978;2023-06-19T10:31:43;6.57;;;6.07;;
17570;SDS011;8903;52.220;20.978;2023-06-19T10:34:10;6.63;;;5.60;;
17570;SDS011;8903;52.220;20.978;2023-06-19T10:36:38;5.63;;;5.20;;
17570;SDS011;8903;52.220;20.978;2023-06-19T10:39:05;4.93;;;4.60;;
17570;SDS011;8903;52.220;20.978;2023-06-19T10:41:33;4.70;;;4.30;;
17570;SDS011;8903;52.220;20.978;2023-06-19T10:44:03;5.17;;;4.77;;
17570;SDS011;8903;52.220;20.978;2023-06-19T10:46:32;5.30;;;4.90;;
17570;SDS011;8903;52.220;20.978;2023-06-19T10:49:01;5.00;;;4.60;;
17570;SDS011;8903;52.220;20.978;2023-06-19T10:51:29;5.63;;;5.23;;
17570;SDS011;8903;52.220;20.978;2023-06-19T10:53:57;5.33;;;4.93;;
17570;SDS011;8903;52.220;20.978;2023-06-19T10:56:24;6.23;;;5.63;;
17570;SDS011;8903;52.220;20.978;2023-06-19T10:58:56;6.03;;;5.53;;
17570;SDS011;8903;52.220;20.978;2023-06-19T11:01:32;9.63;;;4.83;;
17570;SDS011;8903;52.220;20.978;2023-06-19T11:03:59;5.00;;;4.70;;
17570;SDS011;8903;52.220;20.978;2023-06-19T11:06:28;5.80;;;5.30;;
17570;SDS011;8903;52.220;20.978;2023-06-19T11:08:55;5.40;;;5.00;;
17570;SDS011;8903;52.220;20.978;2023-06-19T11:11:23;6.80;;;5.47;;
17570;SDS011;8903;52.220;20.978;2023-06-19T11:13:50;4.80;;;4.50;;
17570;SDS011;8903;52.220;20.978;2023-06-19T11:16:17;7.47;;;6.77;;
17570;SDS011;8903;52.220;20.978;2023-06-19T11:18:46;6.30;;;5.70;;
17570;SDS011;8903;52.220;20.978;2023-06-19T11:21:13;5.10;;;4.70;;
17570;SDS011;8903;52.220;20.978;2023-06-19T11:23:40;6.00;;;5.40;;
17570;SDS011;8903;52.220;20.978;2023-06-19T11:26:14;5.60;;;5.10;;
17570;SDS011;8903;52.220;20.978;2023-06-19T11:28:47;5.70;;;5.20;;
17570;SDS011;8903;52.220;20.978;2023-06-19T11:31:14;6.20;;;5.50;;
17570;SDS011;8903;52.220;20.978;2023-06-19T11:33:42;6.97;;;5.30;;
17570;SDS011;8903;52.220;20.978;2023-06-19T11:36:12;5.50;;;5.10;;
17570;SDS011;8903;52.220;20.978;2023-06-19T11:38:41;4.73;;;4.30;;
17570;SDS011;8903;52.220;20.978;2023-06-19T11:41:24;4.67;;;4.27;;
17570;SDS011;8903;52.220;20.978;2023-06-19T11:43:57;4.70;;;4.40;;
17570;SDS011;8903;52.220;20.978;2023-06-19T11:46:28;6.53;;;5.47;;
17570;SDS011;8903;52.220;20.978;2023-06-19T11:48:55;4.50;;;4.20;;
17570;SDS011;8903;52.220;20.978;2023-06-19T11:51:24;4.90;;;4.50;;
17570;SDS011;8903;52.220;20.978;2023-06-19T11:53:51;9.10;;;5.90;;
17570;SDS011;8903;52.220;20.978;2023-06-19T11:56:19;5.10;;;4.57;;
17570;SDS011;8903;52.220;20.978;2023-06-19T11:58:46;5.00;;;4.70;;
17570;SDS011;8903;52.220;20.978;2023-06-19T12:01:13;4.20;;;3.90;;
17570;SDS011;8903;52.220;20.978;2023-06-19T12:03:40;5.37;;;4.30;;
17570;SDS011;8903;52.220;20.978;2023-06-19T12:06:08;5.53;;;5.13;;
17570;SDS011;8903;52.220;20.978;2023-06-19T12:08:36;4.97;;;4.63;;
17570;SDS011;8903;52.220;20.978;2023-06-19T12:11:03;5.30;;;4.90;;
17570;SDS011;8903;52.220;20.978;2023-06-19T12:13:33;4.43;;;4.13;;
17570;SDS011;8903;52.220;20.978;2023-06-19T12:16:00;4.37;;;4.00;;
17570;SDS011;8903;52.220;20.978;2023-06-19T12:18:29;3.83;;;3.63;;
17570;SDS011;8903;52.220;20.978;2023-06-19T12:20:56;5.13;;;4.30;;
17570;SDS011;8903;52.220;20.978;2023-06-19T12:23:23;5.30;;;4.90;;
17570;SDS011;8903;52.220;20.978;2023-06-19T12:25:52;4.17;;;3.87;;
17570;SDS011;8903;52.220;20.978;2023-06-19T12:28:19;4.80;;;4.40;;
17570;SDS011;8903;52.220;20.978;2023-06-19T12:30:47;6.80;;;4.73;;
17570;SDS011;8903;52.220;20.978;2023-06-19T12:33:16;4.80;;;4.07;;
17570;SDS011;8903;52.220;20.978;2023-06-19T12:35:44;4.87;;;4.47;;
17570;SDS011;8903;52.220;20.978;2023-06-19T12:38:12;5.20;;;4.90;;
17570;SDS011;8903;52.220;20.978;2023-06-19T12:40:39;4.57;;;4.27;;
17570;SDS011;8903;52.220;20.978;2023-06-19T12:43:08;6.50;;;6.10;;
17570;SDS011;8903;52.220;20.978;2023-06-19T12:45:35;6.10;;;5.50;;
17570;SDS011;8903;52.220;20.978;2023-06-19T12:48:03;5.60;;;5.20;;
17570;SDS011;8903;52.220;20.978;2023-06-19T12:50:30;5.93;;;5.43;;
17570;SDS011;8903;52.220;20.978;2023-06-19T12:52:58;6.17;;;5.77;;
17570;SDS011;8903;52.220;20.978;2023-06-19T12:55:25;7.00;;;6.30;;
17570;SDS011;8903;52.220;20.978;2023-06-19T12:57:52;6.57;;;6.17;;
17570;SDS011;8903;52.220;20.978;2023-06-19T13:00:21;6.30;;;5.80;;
17570;SDS011;8903;52.220;20.978;2023-06-19T13:02:48;6.40;;;5.80;;
17570;SDS011;8903;52.220;20.978;2023-06-19T13:05:15;11.40;;;10.40;;
17570;SDS011;8903;52.220;20.978;2023-06-19T13:07:43;8.77;;;5.90;;
17570;SDS011;8903;52.220;20.978;2023-06-19T13:10:10;7.80;;;7.20;;
17570;SDS011;8903;52.220;20.978;2023-06-19T13:12:37;5.90;;;5.30;;
17570;SDS011;8903;52.220;20.978;2023-06-19T13:15:05;7.73;;;6.40;;
17570;SDS011;8903;52.220;20.978;2023-06-19T13:17:34;6.87;;;5.60;;
17570;SDS011;8903;52.220;20.978;2023-06-19T13:20:01;6.43;;;5.60;;
17570;SDS011;8903;52.220;20.978;2023-06-19T13:22:30;5.53;;;5.03;;
17570;SDS011;8903;52.220;20.978;2023-06-19T13:24:57;6.27;;;5.67;;
17570;SDS011;8903;52.220;20.978;2023-06-19T13:27:24;6.00;;;5.50;;
17570;SDS011;8903;52.220;20.978;2023-06-19T13:29:53;5.53;;;5.00;;
17570;SDS011;8903;52.220;20.978;2023-06-19T13:32:20;5.90;;;5.40;;
17570;SDS011;8903;52.220;20.978;2023-06-19T13:34:49;5.40;;;4.90;;
17570;SDS011;8903;52.220;20.978;2023-06-19T13:37:17;5.20;;;4.90;;
17570;SDS011;8903;52.220;20.978;2023-06-19T13:39:45;5.40;;;5.00;;
17570;SDS011;8903;52.220;20.978;2023-06-19T13:42:12;5.63;;;5.13;;
17570;SDS011;8903;52.220;20.978;2023-06-19T13:44:39;5.47;;;4.97;;
17570;SDS011;8903;52.220;20.978;2023-06-19T13:47:06;6.73;;;5.43;;
17570;SDS011;8903;52.220;20.978;2023-06-19T13:49:34;5.63;;;5.20;;
17570;SDS011;8903;52.220;20.978;2023-06-19T13:52:03;5.77;;;5.27;;
17570;SDS011;8903;52.220;20.978;2023-06-19T13:54:30;5.43;;;4.90;;
17570;SDS011;8903;52.220;20.978;2023-06-19T13:56:59;10.00;;;5.90;;
17570;SDS011;8903;52.220;20.978;2023-06-19T13:59:26;6.07;;;5.50;;
17570;SDS011;8903;52.220;20.978;2023-06-19T14:01:53;8.10;;;5.23;;
17570;SDS011;8903;52.220;20.978;2023-06-19T14:04:20;5.20;;;4.90;;
17570;SDS011;8903;52.220;20.978;2023-06-19T14:06:48;5.63;;;5.23;;
17570;SDS011;8903;52.220;20.978;2023-06-19T14:09:16;14.43;;;7.20;;
17570;SDS011;8903;52.220;20.978;2023-06-19T14:11:43;7.30;;;6.27;;
17570;SDS011;8903;52.220;20.978;2023-06-19T14:14:11;5.87;;;5.30;;
17570;SDS011;8903;52.220;20.978;2023-06-19T14:16:38;5.73;;;5.23;;
17570;SDS011;8903;52.220;20.978;2023-06-19T14:19:05;5.70;;;5.30;;
17570;SDS011;8903;52.220;20.978;2023-06-19T14:21:33;5.87;;;5.30;;
17570;SDS011;8903;52.220;20.978;2023-06-19T14:24:00;6.13;;;5.73;;
17570;SDS011;8903;52.220;20.978;2023-06-19T14:26:29;6.33;;;5.83;;
17570;SDS011;8903;52.220;20.978;2023-06-19T14:28:56;6.00;;;5.50;;
17570;SDS011;8903;52.220;20.978;2023-06-19T14:31:24;6.90;;;6.30;;
17570;SDS011;8903;52.220;20.978;2023-06-19T14:33:51;6.23;;;5.73;;
17570;SDS011;8903;52.220;20.978;2023-06-19T14:36:18;7.07;;;6.47;;
17570;SDS011;8903;52.220;20.978;2023-06-19T14:38:46;14.93;;;8.10;;
17570;SDS011;8903;52.220;20.978;2023-06-19T14:41:13;9.30;;;5.83;;